Apulia Station, New York
Current Conditions -  °F | °C
As of 6:55 PM on Sunday 23 Nov 2014 (Local Time) from KN03 Reporting Station
Clear Clear  
Wind Chill: 41°   Ceiling: Unl
Heat Index: 41°   Visibility: 10mi
Dew Point: 36°   Wind: 3mph
Humidity: 81%   Direction: 360°N
Pressure: 29.97"   Gusts: NA
Location:  42.82°N, 76.07°W
Report Text: KN03 232355Z AUTO 36003KT 10SM CLR 05/02 A2997 RMK AO2
Loading
Personal Weather Stations






























Interactive Weather Map New forecast layout! Learn more

10-Day Weather Forecast

Advertisements
Track Severe Weather on mobile